< < Back
Terminal Aerodrome Forecast


Current Version              Previous Versions:   1  2  3  4  5  6  7  8  9  

Terminal Aerodrome Forecast

418
FTUS42 KTAE 261725
TAFVLD
TAF
KVLD 261725Z 2618/2718 27008KT P6SM SCT040
     FM270000 00000KT P6SM SCT250
     FM271100 03002KT 4SM BR OVC007
     FM271500 02003KT P6SM OVC250=

Latest METAR

350
SAUS70 KWBC 271700 RRC
MTRVLD
METAR KVLD 271653Z 00000KT 10SM CLR 22/17 A2982 RMK AO2 SLP105
T02220167


USA.gov is the U.S. government's official web portal to all federal, state and local government web resources and services.